createdAt,value
2022-10-30T00:00:09.604Z,13.07
2022-10-30T00:01:33.003Z,12.32
2022-10-30T00:02:55.788Z,11.98
2022-10-30T00:04:19.477Z,12.73
2022-10-30T00:05:45.708Z,12.27
2022-10-30T00:07:09.144Z,12.27
2022-10-30T00:08:33.597Z,13.10
2022-10-30T00:09:56.958Z,12.02
2022-10-30T00:11:20.318Z,11.43
2022-10-30T00:12:44.945Z,12.38
2022-10-30T00:14:08.541Z,12.40
2022-10-30T00:15:30.907Z,12.52
2022-10-30T00:16:54.255Z,12.73
2022-10-30T00:18:17.882Z,13.20
2022-10-30T00:19:42.388Z,12.02
2022-10-30T00:21:08.946Z,12.07
2022-10-30T00:22:32.339Z,11.40
2022-10-30T00:23:57.037Z,12.05
2022-10-30T00:25:19.421Z,12.15
2022-10-30T00:26:42.962Z,12.93
2022-10-30T00:28:06.269Z,13.40
2022-10-30T00:29:29.617Z,12.25
2022-10-30T00:30:52.034Z,12.35
2022-10-30T00:32:15.506Z,12.30
2022-10-30T00:33:37.920Z,12.25
2022-10-30T00:35:01.317Z,12.40
2022-10-30T00:36:25.005Z,13.15
2022-10-30T00:37:47.409Z,13.32
2022-10-30T00:39:12.287Z,12.90
2022-10-30T00:40:35.663Z,12.07
2022-10-30T00:41:58.034Z,12.88
2022-10-30T00:43:33.246Z,11.82
2022-10-30T00:44:57.131Z,13.55
2022-10-30T00:46:25.245Z,12.02
2022-10-30T00:47:53.102Z,13.82
2022-10-30T00:49:18.118Z,12.77
2022-10-30T00:50:41.462Z,12.30
2022-10-30T00:52:05.877Z,13.05
2022-10-30T00:53:30.396Z,12.38
2022-10-30T00:54:54.991Z,12.27
2022-10-30T00:56:21.065Z,12.55
2022-10-30T00:57:44.606Z,11.82
2022-10-30T00:59:10.074Z,13.55
2022-10-30T01:00:33.549Z,12.15
2022-10-30T01:01:56.511Z,12.73
2022-10-30T01:03:21.467Z,13.60
2022-10-30T01:04:44.405Z,11.63
2022-10-30T01:06:10.618Z,11.55
2022-10-30T01:07:33.983Z,13.07
2022-10-30T01:08:59.834Z,12.15
2022-10-30T01:10:25.180Z,13.30
2022-10-30T01:11:48.634Z,11.52
2022-10-30T01:13:13.953Z,13.00
2022-10-30T01:14:39.559Z,11.63
2022-10-30T01:16:14.217Z,12.85
2022-10-30T01:17:56.784Z,11.88
2022-10-30T01:19:25.520Z,12.02
2022-10-30T01:21:16.579Z,13.90
2022-10-30T01:22:51.390Z,12.10
2022-10-30T01:24:29.583Z,13.77
2022-10-30T01:26:00.235Z,14.15
2022-10-30T01:27:31.038Z,12.70
2022-10-30T01:29:08.777Z,12.85
2022-10-30T01:30:42.115Z,12.95
2022-10-30T01:32:19.068Z,13.20
2022-10-30T01:33:52.739Z,13.73
2022-10-30T01:35:21.597Z,14.70
2022-10-30T01:36:47.083Z,14.75
2022-10-30T01:38:13.678Z,13.88
2022-10-30T01:39:39.496Z,14.27
2022-10-30T01:41:04.203Z,14.30
2022-10-30T01:42:55.714Z,14.43
2022-10-30T01:44:21.517Z,13.25
2022-10-30T01:46:05.819Z,13.32
2022-10-30T01:47:35.754Z,13.55
2022-10-30T01:49:27.589Z,13.63
2022-10-30T01:50:54.461Z,12.35
2022-10-30T01:52:21.808Z,13.48
2022-10-30T01:53:51.129Z,13.38
2022-10-30T01:55:24.636Z,13.57
2022-10-30T01:57:04.219Z,14.23
2022-10-30T01:58:31.972Z,13.55
2022-10-30T01:59:58.105Z,13.70
2022-10-30T02:01:20.907Z,13.57
2022-10-30T02:02:44.641Z,14.85
2022-10-30T02:04:08.470Z,13.55
2022-10-30T02:05:34.708Z,14.38
2022-10-30T02:06:57.428Z,14.52
2022-10-30T02:08:21.422Z,13.55
2022-10-30T02:09:44.782Z,13.20
2022-10-30T02:11:08.148Z,14.65
2022-10-30T02:12:32.170Z,13.75
2022-10-30T02:13:57.492Z,14.07
2022-10-30T02:15:21.103Z,13.40
2022-10-30T02:16:46.352Z,12.98
2022-10-30T02:18:10.153Z,14.00
2022-10-30T02:19:32.543Z,13.90
2022-10-30T02:20:57.261Z,12.82
2022-10-30T02:22:20.699Z,13.60
2022-10-30T02:23:46.452Z,13.00
2022-10-30T02:25:09.413Z,12.68
2022-10-30T02:26:32.797Z,13.48
2022-10-30T02:27:55.180Z,13.43
2022-10-30T02:29:21.437Z,14.13
2022-10-30T02:30:44.886Z,13.27
2022-10-30T02:32:07.425Z,13.52
2022-10-30T02:33:30.771Z,14.15
2022-10-30T02:34:53.134Z,13.18
2022-10-30T02:36:17.824Z,13.48
2022-10-30T02:37:41.186Z,12.77
2022-10-30T02:39:03.702Z,13.20
2022-10-30T02:40:27.925Z,13.02
2022-10-30T02:41:51.312Z,12.50
2022-10-30T02:43:14.654Z,13.02
2022-10-30T02:44:37.003Z,13.55
2022-10-30T02:46:00.661Z,12.40
2022-10-30T02:47:24.018Z,12.57
2022-10-30T02:48:46.386Z,13.05
2022-10-30T02:50:10.911Z,13.25
2022-10-30T02:51:35.255Z,12.95
2022-10-30T02:53:00.836Z,12.27
2022-10-30T02:54:24.599Z,12.98
2022-10-30T02:55:47.252Z,11.85
2022-10-30T02:57:11.400Z,12.45
2022-10-30T02:58:34.748Z,12.70
2022-10-30T02:59:58.081Z,12.25
2022-10-30T03:01:21.948Z,12.82
2022-10-30T03:02:44.456Z,11.73
2022-10-30T03:04:07.845Z,12.52
2022-10-30T03:05:30.189Z,12.35
2022-10-30T03:06:54.914Z,11.60
2022-10-30T03:08:17.344Z,11.73
2022-10-30T03:09:40.714Z,12.98
2022-10-30T03:11:05.335Z,11.73
2022-10-30T03:12:28.689Z,12.10
2022-10-30T03:13:51.171Z,11.82
2022-10-30T03:15:14.594Z,12.85
2022-10-30T03:16:37.607Z,12.05
2022-10-30T03:18:01.208Z,11.73
2022-10-30T03:19:24.743Z,12.75
2022-10-30T03:20:47.094Z,13.13
2022-10-30T03:22:11.804Z,12.02
2022-10-30T03:23:34.389Z,11.73
2022-10-30T03:24:57.769Z,12.10
2022-10-30T03:26:20.930Z,12.98
2022-10-30T03:27:44.289Z,11.70
2022-10-30T03:29:06.687Z,12.63
2022-10-30T03:30:31.615Z,11.82
2022-10-30T03:31:53.949Z,12.43
2022-10-30T03:33:17.353Z,11.90
2022-10-30T03:34:40.697Z,11.63
2022-10-30T03:36:03.660Z,11.60
2022-10-30T03:37:28.410Z,12.40
2022-10-30T03:38:50.806Z,13.00
2022-10-30T03:40:14.413Z,12.73
2022-10-30T03:41:37.826Z,12.57
2022-10-30T03:43:00.617Z,10.48
2022-10-30T03:44:24.210Z,11.82
2022-10-30T03:45:48.199Z,11.75
2022-10-30T03:47:18.142Z,12.40
2022-10-30T03:48:41.490Z,12.05
2022-10-30T03:50:05.157Z,11.43
2022-10-30T03:51:28.482Z,11.75
2022-10-30T03:52:54.193Z,13.20
2022-10-30T03:54:18.366Z,11.73
2022-10-30T03:55:41.505Z,12.35
2022-10-30T03:57:04.907Z,11.02
2022-10-30T03:58:27.791Z,10.82
2022-10-30T03:59:51.112Z,12.63
2022-10-30T04:01:14.613Z,12.20
2022-10-30T04:02:38.010Z,12.13
2022-10-30T04:04:02.917Z,11.13
2022-10-30T04:05:27.100Z,11.95
2022-10-30T04:06:50.436Z,11.38
2022-10-30T04:08:15.970Z,10.57
2022-10-30T04:09:40.143Z,11.75
2022-10-30T04:11:03.594Z,10.95
2022-10-30T04:12:25.968Z,11.57
2022-10-30T04:13:49.301Z,10.82
2022-10-30T04:15:11.653Z,11.52
2022-10-30T04:16:35.016Z,10.40
2022-10-30T04:17:57.692Z,10.20
2022-10-30T04:19:21.347Z,9.77
2022-10-30T04:20:45.020Z,11.07
2022-10-30T04:22:08.355Z,10.00
2022-10-30T04:23:33.074Z,10.05
2022-10-30T04:24:55.441Z,11.63
2022-10-30T04:26:18.778Z,11.05
2022-10-30T04:27:41.753Z,11.55
2022-10-30T04:29:05.219Z,11.25
2022-10-30T04:30:27.858Z,11.20
2022-10-30T04:31:51.264Z,10.05
2022-10-30T04:33:15.312Z,10.38
2022-10-30T04:34:39.412Z,11.48
2022-10-30T04:36:02.795Z,10.88
2022-10-30T04:37:27.784Z,11.02
2022-10-30T04:38:52.460Z,11.35
2022-10-30T04:40:14.950Z,10.32
2022-10-30T04:41:38.278Z,10.40
2022-10-30T04:43:01.960Z,11.00
2022-10-30T04:44:25.474Z,10.73
2022-10-30T04:45:48.845Z,10.43
2022-10-30T04:47:11.228Z,10.73
2022-10-30T04:48:36.219Z,11.27
2022-10-30T04:49:58.574Z,10.85
2022-10-30T04:51:21.891Z,10.07
2022-10-30T04:52:45.262Z,10.38
2022-10-30T04:54:10.056Z,11.05
2022-10-30T04:55:33.768Z,10.52
2022-10-30T04:56:57.201Z,10.23
2022-10-30T04:58:19.584Z,11.40
2022-10-30T04:59:43.028Z,11.90
2022-10-30T05:01:07.907Z,10.90
2022-10-30T05:02:31.650Z,11.80
2022-10-30T05:03:55.236Z,10.32
2022-10-30T05:05:17.632Z,10.98
2022-10-30T05:06:40.963Z,11.07
2022-10-30T05:08:03.386Z,11.00
2022-10-30T05:09:28.081Z,11.25
2022-10-30T05:10:51.467Z,10.70
2022-10-30T05:12:16.606Z,10.23
2022-10-30T05:13:39.964Z,9.85
2022-10-30T05:15:02.321Z,9.68
2022-10-30T05:16:25.709Z,11.15
2022-10-30T05:17:52.822Z,11.15
2022-10-30T05:19:16.225Z,10.48
2022-10-30T05:20:39.589Z,10.27
2022-10-30T05:22:01.942Z,11.30
2022-10-30T05:23:25.313Z,10.32
2022-10-30T05:24:49.034Z,10.52
2022-10-30T05:26:12.491Z,11.32
2022-10-30T05:27:35.839Z,9.40
2022-10-30T05:28:59.165Z,10.07
2022-10-30T05:30:22.563Z,11.10
2022-10-30T05:31:44.897Z,10.63
2022-10-30T05:33:10.883Z,10.13
2022-10-30T05:34:33.256Z,10.00
2022-10-30T05:35:56.625Z,10.75
2022-10-30T05:37:19.955Z,10.20
2022-10-30T05:38:42.342Z,9.57
2022-10-30T05:40:08.182Z,9.43
2022-10-30T05:41:31.565Z,9.88
2022-10-30T05:42:54.035Z,10.15
2022-10-30T05:44:28.834Z,11.43
2022-10-30T05:45:57.947Z,10.02
2022-10-30T05:47:21.256Z,9.68
2022-10-30T05:48:43.578Z,9.90
2022-10-30T05:50:08.181Z,10.38
2022-10-30T05:51:35.122Z,9.80
2022-10-30T05:53:01.030Z,9.90
2022-10-30T05:54:24.384Z,9.88
2022-10-30T05:55:49.262Z,9.45
2022-10-30T05:57:11.689Z,9.13
2022-10-30T05:58:35.074Z,9.85
2022-10-30T05:59:58.431Z,9.27
2022-10-30T06:01:24.925Z,9.70
2022-10-30T06:02:47.487Z,9.23
2022-10-30T06:04:10.919Z,9.45
2022-10-30T06:05:34.790Z,9.13
2022-10-30T06:06:58.705Z,8.70
2022-10-30T06:08:22.073Z,9.50
2022-10-30T06:09:44.611Z,9.82
2022-10-30T06:11:10.024Z,8.38
2022-10-30T06:12:34.057Z,8.65
2022-10-30T06:13:56.433Z,8.45
2022-10-30T06:15:19.770Z,8.80
2022-10-30T06:16:43.118Z,8.05
2022-10-30T06:18:06.579Z,9.00
2022-10-30T06:19:28.970Z,8.43
2022-10-30T06:20:52.376Z,7.93
2022-10-30T06:22:15.713Z,8.13
2022-10-30T06:23:39.078Z,8.18
2022-10-30T06:25:02.464Z,8.00
2022-10-30T06:26:27.208Z,7.75
2022-10-30T06:27:49.605Z,9.05
2022-10-30T06:29:12.979Z,9.32
2022-10-30T06:30:35.324Z,8.68
2022-10-30T06:32:00.819Z,8.68
2022-10-30T06:33:27.257Z,7.90
2022-10-30T06:34:52.631Z,8.68
2022-10-30T06:36:17.460Z,8.93
2022-10-30T06:37:44.943Z,8.05
2022-10-30T06:39:08.269Z,7.97
2022-10-30T06:40:31.801Z,8.45
2022-10-30T06:41:55.514Z,9.15
2022-10-30T06:43:18.909Z,9.23
2022-10-30T06:44:42.247Z,7.20
2022-10-30T06:47:35.592Z,7.45
2022-10-30T06:48:58.998Z,8.60
2022-10-30T06:50:24.183Z,8.75
2022-10-30T06:51:47.883Z,7.93
2022-10-30T06:53:11.194Z,7.93
2022-10-30T06:54:34.574Z,7.63
2022-10-30T06:55:59.064Z,8.15
2022-10-30T06:57:23.012Z,7.97
2022-10-30T06:58:46.332Z,9.27
2022-10-30T07:00:09.829Z,8.13
2022-10-30T07:01:33.243Z,7.78
2022-10-30T07:02:57.352Z,8.52
2022-10-30T07:04:21.972Z,7.45
2022-10-30T07:05:45.452Z,7.40
2022-10-30T07:07:08.780Z,7.25
2022-10-30T07:08:32.611Z,7.90
2022-10-30T07:09:54.971Z,8.05
2022-10-30T07:11:20.013Z,7.90
2022-10-30T07:12:51.614Z,8.15
2022-10-30T07:14:15.418Z,8.57
2022-10-30T07:15:38.844Z,7.90
2022-10-30T07:17:01.434Z,7.88
2022-10-30T07:18:24.805Z,7.93
2022-10-30T07:19:48.718Z,8.18
2022-10-30T07:21:12.046Z,8.02
2022-10-30T07:22:34.476Z,8.07
2022-10-30T07:23:58.025Z,8.05
2022-10-30T07:25:21.860Z,7.88
2022-10-30T07:26:45.321Z,7.70
2022-10-30T07:28:10.043Z,7.53
2022-10-30T07:29:32.388Z,6.93
2022-10-30T07:30:55.750Z,8.48
2022-10-30T07:32:19.102Z,8.02
2022-10-30T07:33:42.428Z,6.93
2022-10-30T07:35:06.641Z,7.20
2022-10-30T07:36:30.110Z,7.70
2022-10-30T07:37:53.477Z,6.78
2022-10-30T07:39:16.922Z,8.35
2022-10-30T07:40:40.287Z,8.35
2022-10-30T07:42:03.808Z,7.78
2022-10-30T07:43:28.575Z,7.40
2022-10-30T07:44:51.029Z,7.70
2022-10-30T07:46:14.919Z,7.70
2022-10-30T07:47:41.264Z,7.57
2022-10-30T07:49:04.608Z,6.93
2022-10-30T07:50:28.063Z,6.90
2022-10-30T07:51:52.036Z,7.25
2022-10-30T07:53:16.652Z,6.97
2022-10-30T07:54:39.081Z,7.22
2022-10-30T07:56:02.455Z,6.53
2022-10-30T07:57:24.921Z,7.18
2022-10-30T07:58:49.966Z,6.80
2022-10-30T08:00:14.574Z,7.22
2022-10-30T08:01:38.051Z,6.90
2022-10-30T08:03:01.887Z,6.20
2022-10-30T08:04:25.729Z,7.30
2022-10-30T08:05:48.062Z,6.80
2022-10-30T08:07:11.406Z,6.78
2022-10-30T08:08:37.911Z,7.43
2022-10-30T08:10:06.389Z,6.88
2022-10-30T08:11:29.728Z,7.43
2022-10-30T08:12:53.085Z,7.15
2022-10-30T08:14:17.768Z,6.55
2022-10-30T08:15:41.103Z,7.57
2022-10-30T08:17:05.119Z,6.72
2022-10-30T08:18:28.461Z,7.03
2022-10-30T08:19:51.804Z,7.03
2022-10-30T08:21:15.200Z,6.35
2022-10-30T08:22:46.283Z,6.47
2022-10-30T08:24:09.995Z,6.80
2022-10-30T08:25:33.330Z,6.00
2022-10-30T08:26:56.680Z,6.82
2022-10-30T08:28:20.050Z,5.90
2022-10-30T08:29:44.723Z,6.30
2022-10-30T08:31:08.617Z,6.45
2022-10-30T08:32:31.997Z,5.47
2022-10-30T08:33:55.333Z,6.53
2022-10-30T08:35:20.237Z,5.30
2022-10-30T08:36:46.774Z,6.03
2022-10-30T08:38:12.714Z,5.57
2022-10-30T08:39:36.070Z,7.38
2022-10-30T08:40:59.696Z,6.25
2022-10-30T08:42:22.095Z,5.38
2022-10-30T08:43:45.437Z,5.72
2022-10-30T08:45:11.087Z,6.05
2022-10-30T08:46:34.471Z,6.07
2022-10-30T08:47:59.163Z,5.43
2022-10-30T08:49:22.835Z,5.72
2022-10-30T08:50:46.412Z,5.43
2022-10-30T08:52:08.995Z,5.90
2022-10-30T08:53:32.339Z,5.18
2022-10-30T08:54:55.300Z,4.80
2022-10-30T08:56:18.869Z,4.63
2022-10-30T08:57:42.261Z,5.90
2022-10-30T08:59:05.627Z,5.65
2022-10-30T09:00:30.748Z,5.47
2022-10-30T09:01:54.192Z,5.20
2022-10-30T09:03:17.655Z,5.05
2022-10-30T09:04:41.014Z,5.28
2022-10-30T09:06:04.489Z,5.63
2022-10-30T09:07:27.864Z,5.50
2022-10-30T09:08:51.271Z,5.15
2022-10-30T09:10:13.944Z,5.57
2022-10-30T09:11:37.309Z,5.43
2022-10-30T09:13:02.355Z,4.47
2022-10-30T09:14:25.863Z,4.63
2022-10-30T09:15:49.587Z,4.70
2022-10-30T09:17:13.259Z,5.90
2022-10-30T09:18:36.606Z,4.63
2022-10-30T09:20:00.002Z,4.82
2022-10-30T09:21:23.387Z,5.15
2022-10-30T09:22:46.747Z,5.43
2022-10-30T09:24:10.150Z,4.60
2022-10-30T09:25:33.517Z,4.65
2022-10-30T09:26:57.178Z,5.13
2022-10-30T09:28:20.570Z,4.40
2022-10-30T09:29:44.003Z,5.65
2022-10-30T09:31:09.324Z,4.97
2022-10-30T09:32:32.811Z,5.28
2022-10-30T09:33:56.479Z,4.57
2022-10-30T09:35:19.814Z,4.85
2022-10-30T09:36:43.863Z,4.93
2022-10-30T09:38:07.193Z,4.93
2022-10-30T09:39:30.915Z,4.90
2022-10-30T09:41:19.953Z,4.50
2022-10-30T09:42:45.108Z,4.65
2022-10-30T09:44:18.126Z,5.28
2022-10-30T09:46:00.198Z,4.78
2022-10-30T09:47:30.017Z,4.28
2022-10-30T09:49:11.654Z,3.97
2022-10-30T09:50:39.828Z,4.38
2022-10-30T09:52:19.120Z,4.55
2022-10-30T09:53:48.728Z,4.32
2022-10-30T09:55:31.663Z,4.65
2022-10-30T09:57:01.189Z,4.75
2022-10-30T09:58:29.743Z,4.72
2022-10-30T10:00:03.220Z,3.63
2022-10-30T10:01:30.217Z,4.53
2022-10-30T10:03:00.519Z,5.28
2022-10-30T10:04:28.468Z,4.45
2022-10-30T10:05:53.992Z,4.18
2022-10-30T10:07:22.792Z,4.40
2022-10-30T10:08:49.494Z,4.20
2022-10-30T10:10:17.548Z,4.88
2022-10-30T10:11:43.767Z,3.72
2022-10-30T10:13:09.706Z,4.05
2022-10-30T10:14:36.314Z,3.95
2022-10-30T10:16:04.515Z,3.97
2022-10-30T10:17:32.968Z,3.63
2022-10-30T10:19:01.797Z,3.83
2022-10-30T10:20:31.243Z,4.10
2022-10-30T10:21:58.354Z,4.10
2022-10-30T10:23:27.699Z,3.78
2022-10-30T10:24:50.533Z,4.25
2022-10-30T10:26:25.833Z,3.67
2022-10-30T10:28:08.646Z,4.93
2022-10-30T10:29:35.738Z,3.80
2022-10-30T10:31:06.089Z,3.88
2022-10-30T10:32:48.073Z,4.38
2022-10-30T10:34:22.847Z,4.00
2022-10-30T10:35:54.653Z,3.80
2022-10-30T10:37:23.976Z,4.03
2022-10-30T10:39:06.065Z,4.03
2022-10-30T10:40:38.389Z,4.05
2022-10-30T10:42:10.171Z,4.13
2022-10-30T10:43:41.140Z,3.90
2022-10-30T10:45:20.882Z,3.80
2022-10-30T10:46:55.739Z,3.50
2022-10-30T10:48:30.324Z,4.18
2022-10-30T10:50:04.610Z,4.57
2022-10-30T10:51:31.997Z,4.05
2022-10-30T10:53:01.540Z,3.97
2022-10-30T10:54:28.488Z,3.78
2022-10-30T10:55:54.171Z,3.55
2022-10-30T10:57:21.147Z,3.67
2022-10-30T10:58:50.757Z,4.05
2022-10-30T11:00:17.941Z,3.40
2022-10-30T11:01:43.667Z,3.78
2022-10-30T11:03:10.375Z,4.60
2022-10-30T11:04:37.421Z,3.85
2022-10-30T11:06:06.914Z,4.25
2022-10-30T11:07:33.443Z,3.92
2022-10-30T11:09:16.431Z,4.05
2022-10-30T11:10:40.058Z,4.00
2022-10-30T11:12:03.429Z,3.97
2022-10-30T11:13:28.966Z,4.07
2022-10-30T11:14:52.304Z,4.22
2022-10-30T11:16:23.227Z,3.58
2022-10-30T11:17:51.919Z,3.72
2022-10-30T11:19:14.479Z,4.10
2022-10-30T11:20:44.125Z,3.55
2022-10-30T11:22:16.199Z,3.60
2022-10-30T11:23:41.233Z,4.10
2022-10-30T11:25:20.733Z,4.30
2022-10-30T11:26:44.441Z,3.60
2022-10-30T11:28:09.174Z,3.58
2022-10-30T11:29:32.666Z,4.40
2022-10-30T11:31:19.957Z,4.45
2022-10-30T11:32:43.310Z,3.20
2022-10-30T11:34:32.804Z,3.60
2022-10-30T11:35:56.201Z,3.08
2022-10-30T11:37:33.088Z,3.38
2022-10-30T11:38:59.246Z,3.75
2022-10-30T11:40:23.847Z,3.40
2022-10-30T11:41:54.702Z,3.85
2022-10-30T11:43:23.174Z,3.30
2022-10-30T11:44:49.282Z,4.03
2022-10-30T11:46:17.007Z,3.53
2022-10-30T11:47:40.760Z,3.45
2022-10-30T11:49:04.123Z,3.42
2022-10-30T11:50:29.167Z,4.68
2022-10-30T11:51:51.698Z,3.42
2022-10-30T11:53:22.644Z,3.88
2022-10-30T11:54:48.266Z,3.92
2022-10-30T11:56:17.302Z,3.45
2022-10-30T11:57:44.100Z,3.80
2022-10-30T11:59:07.979Z,4.28
2022-10-30T12:00:33.976Z,4.05
2022-10-30T12:02:02.664Z,4.28
2022-10-30T12:03:30.045Z,3.92
2022-10-30T12:04:53.907Z,3.65
2022-10-30T12:06:21.801Z,3.50
2022-10-30T12:07:45.129Z,4.00
2022-10-30T12:09:14.538Z,4.05
2022-10-30T12:10:44.305Z,4.50
2022-10-30T12:12:12.790Z,3.45
2022-10-30T12:13:40.472Z,3.95
2022-10-30T12:15:11.965Z,4.28
2022-10-30T12:16:35.614Z,3.55
2022-10-30T12:18:02.142Z,3.25
2022-10-30T12:19:26.323Z,4.05
2022-10-30T12:20:53.203Z,4.03
2022-10-30T12:22:26.741Z,2.97
2022-10-30T12:23:54.719Z,3.75
2022-10-30T12:25:26.208Z,3.17
2022-10-30T12:26:52.093Z,4.57
2022-10-30T12:28:16.077Z,3.60
2022-10-30T12:30:07.518Z,3.50
2022-10-30T12:31:36.715Z,3.80
2022-10-30T12:33:04.713Z,4.20
2022-10-30T12:34:37.531Z,3.65
2022-10-30T12:36:02.510Z,3.83
2022-10-30T12:37:29.033Z,3.55
2022-10-30T12:38:55.565Z,3.95
2022-10-30T12:40:22.674Z,3.42
2022-10-30T12:41:52.460Z,3.30
2022-10-30T12:43:20.789Z,4.00
2022-10-30T12:44:46.008Z,3.55
2022-10-30T12:46:24.735Z,3.22
2022-10-30T12:47:52.427Z,3.53
2022-10-30T12:49:21.201Z,3.72
2022-10-30T12:50:46.386Z,3.40
2022-10-30T12:52:14.718Z,3.38
2022-10-30T12:53:41.424Z,3.90
2022-10-30T12:55:06.828Z,3.15
2022-10-30T12:56:35.310Z,3.40
2022-10-30T12:58:04.278Z,3.40
2022-10-30T12:59:33.519Z,3.67
2022-10-30T13:01:00.869Z,3.42
2022-10-30T13:02:39.347Z,3.13
2022-10-30T13:04:18.749Z,4.00
2022-10-30T13:05:45.081Z,3.08
2022-10-30T13:07:14.506Z,3.67
2022-10-30T13:08:42.573Z,4.18
2022-10-30T13:10:20.362Z,4.05
2022-10-30T13:11:52.212Z,4.03
2022-10-30T13:13:17.988Z,4.25
2022-10-30T13:14:45.547Z,3.33
2022-10-30T13:16:13.485Z,4.25
2022-10-30T13:17:36.890Z,3.60
2022-10-30T13:19:02.187Z,3.40
2022-10-30T13:20:26.455Z,4.03
2022-10-30T13:21:57.127Z,3.50
2022-10-30T13:23:23.315Z,3.22
2022-10-30T13:24:55.007Z,3.50
2022-10-30T13:26:35.605Z,3.47
2022-10-30T13:28:05.305Z,3.30
2022-10-30T13:29:32.933Z,3.50
2022-10-30T13:31:02.282Z,3.72
2022-10-30T13:32:32.301Z,3.08
2022-10-30T13:34:01.651Z,3.92
2022-10-30T13:35:31.752Z,2.97
2022-10-30T13:36:59.014Z,3.53
2022-10-30T13:38:35.789Z,3.30
2022-10-30T13:40:12.699Z,3.83
2022-10-30T13:41:47.472Z,3.63
2022-10-30T13:43:21.378Z,3.25
2022-10-30T13:44:51.975Z,4.03
2022-10-30T13:46:22.906Z,4.00
2022-10-30T13:47:53.624Z,4.32
2022-10-30T13:49:31.953Z,3.90
2022-10-30T13:51:19.401Z,4.20
2022-10-30T13:52:48.181Z,3.78
2022-10-30T13:54:18.507Z,3.88
2022-10-30T13:55:43.100Z,3.45
2022-10-30T13:57:08.949Z,4.07
2022-10-30T13:58:38.981Z,3.95
2022-10-30T14:00:07.347Z,4.55
2022-10-30T14:01:34.770Z,3.10
2022-10-30T14:03:24.253Z,3.22
2022-10-30T14:04:53.816Z,3.55
2022-10-30T14:06:24.666Z,4.00
2022-10-30T14:07:53.898Z,3.40
2022-10-30T14:09:22.912Z,3.95
2022-10-30T14:10:48.203Z,4.05
2022-10-30T14:12:46.074Z,3.95
2022-10-30T14:14:30.189Z,3.83
2022-10-30T14:15:55.248Z,4.32
2022-10-30T14:17:19.375Z,3.50
2022-10-30T14:18:46.975Z,3.67
2022-10-30T14:20:29.606Z,4.05
2022-10-30T14:21:53.632Z,3.50
2022-10-30T14:23:20.082Z,3.20
2022-10-30T14:24:46.033Z,3.78
2022-10-30T14:26:22.968Z,4.82
2022-10-30T14:27:56.977Z,3.40
2022-10-30T14:29:45.637Z,3.38
2022-10-30T14:31:10.868Z,3.65
2022-10-30T14:32:52.699Z,4.07
2022-10-30T14:34:43.809Z,4.07
2022-10-30T14:36:21.397Z,5.43
2022-10-30T14:37:57.209Z,4.20
2022-10-30T14:39:30.916Z,3.85
2022-10-30T14:41:25.319Z,3.95
2022-10-30T14:42:53.823Z,3.97
2022-10-30T14:44:55.560Z,3.63
2022-10-30T14:46:23.363Z,3.88
2022-10-30T14:47:55.728Z,3.83
2022-10-30T14:49:34.876Z,3.70
2022-10-30T14:51:05.581Z,3.90
2022-10-30T14:52:37.311Z,4.20
2022-10-30T14:54:05.788Z,4.72
2022-10-30T14:55:32.349Z,4.35
2022-10-30T14:56:55.734Z,4.07
2022-10-30T14:58:23.606Z,3.88
2022-10-30T14:59:46.988Z,3.60
2022-10-30T15:01:29.533Z,3.80
2022-10-30T15:02:57.957Z,3.75
2022-10-30T15:04:24.669Z,3.45
2022-10-30T15:05:52.552Z,3.58
2022-10-30T15:07:23.022Z,3.58
2022-10-30T15:09:17.335Z,4.70
2022-10-30T15:10:46.561Z,4.35
2022-10-30T15:12:56.955Z,4.40
2022-10-30T15:14:40.717Z,3.92
2022-10-30T15:16:14.120Z,3.72
2022-10-30T15:17:40.706Z,4.05
2022-10-30T15:19:07.245Z,3.78
2022-10-30T15:20:33.082Z,3.95
2022-10-30T15:21:57.659Z,4.15
2022-10-30T15:23:24.237Z,3.90
2022-10-30T15:24:46.756Z,3.50
2022-10-30T15:26:21.500Z,4.03
2022-10-30T15:27:47.605Z,3.67
2022-10-30T15:29:18.183Z,4.05
2022-10-30T15:31:00.030Z,4.20
2022-10-30T15:32:25.115Z,4.38
2022-10-30T15:33:49.832Z,4.32
2022-10-30T15:35:17.680Z,3.78
2022-10-30T15:36:43.456Z,4.18
2022-10-30T15:38:08.200Z,4.13
2022-10-30T15:39:30.552Z,4.40
2022-10-30T15:40:59.545Z,4.63
2022-10-30T15:42:23.272Z,4.85
2022-10-30T15:43:46.657Z,5.55
2022-10-30T15:45:18.011Z,6.00
2022-10-30T15:46:41.477Z,5.88
2022-10-30T15:48:09.927Z,4.57
2022-10-30T15:49:36.257Z,5.57
2022-10-30T15:51:02.385Z,5.10
2022-10-30T15:52:29.114Z,5.25
2022-10-30T15:53:54.266Z,5.97
2022-10-30T15:55:19.022Z,5.78
2022-10-30T15:57:08.339Z,6.65
2022-10-30T15:58:27.566Z,6.15
2022-10-30T15:59:53.956Z,5.88
2022-10-30T16:01:26.805Z,6.00
2022-10-30T16:02:50.496Z,5.47
2022-10-30T16:04:17.343Z,5.68
2022-10-30T16:05:42.246Z,5.97
2022-10-30T16:07:18.918Z,6.53
2022-10-30T16:08:45.683Z,6.50
2022-10-30T16:10:15.800Z,6.72
2022-10-30T16:11:39.408Z,5.88
2022-10-30T16:13:02.797Z,7.15
2022-10-30T16:14:28.276Z,6.68
2022-10-30T16:15:51.805Z,6.60
2022-10-30T16:17:15.217Z,6.57
2022-10-30T16:18:39.091Z,7.18
2022-10-30T16:20:04.733Z,7.32
2022-10-30T16:21:30.843Z,7.47
2022-10-30T16:22:55.044Z,7.13
2022-10-30T16:24:18.750Z,7.45
2022-10-30T16:25:46.985Z,7.57
2022-10-30T16:27:18.178Z,7.40
2022-10-30T16:28:42.019Z,7.05
2022-10-30T16:30:05.133Z,8.40
2022-10-30T16:31:33.863Z,7.43
2022-10-30T16:32:58.089Z,7.95
2022-10-30T16:34:25.605Z,8.05
2022-10-30T16:35:54.748Z,8.77
2022-10-30T16:37:22.267Z,8.40
2022-10-30T16:38:47.421Z,9.30
2022-10-30T16:40:14.430Z,8.45
2022-10-30T16:41:38.642Z,9.85
2022-10-30T16:43:05.291Z,8.75
2022-10-30T16:44:29.777Z,9.05
2022-10-30T16:45:52.770Z,8.85
2022-10-30T16:47:25.539Z,8.90
2022-10-30T16:48:54.342Z,9.70
2022-10-30T16:50:18.642Z,10.93
2022-10-30T16:51:42.287Z,9.75
2022-10-30T16:53:10.318Z,10.70
2022-10-30T16:54:36.813Z,9.90
2022-10-30T16:55:59.875Z,10.50
2022-10-30T16:57:28.115Z,10.13
2022-10-30T16:58:51.049Z,9.57
2022-10-30T17:00:24.417Z,9.15
2022-10-30T17:01:55.359Z,10.10
2022-10-30T17:03:23.756Z,10.23
2022-10-30T17:04:51.304Z,9.60
2022-10-30T17:06:39.788Z,10.45
2022-10-30T17:08:05.134Z,10.88
2022-10-30T17:09:30.506Z,10.23
2022-10-30T17:10:57.617Z,11.63
2022-10-30T17:12:22.539Z,9.75
2022-10-30T17:13:59.564Z,10.63
2022-10-30T17:15:23.685Z,10.80
2022-10-30T17:16:53.610Z,10.55
2022-10-30T17:18:20.589Z,12.18
2022-10-30T17:19:47.950Z,10.32
2022-10-30T17:21:13.854Z,10.98
2022-10-30T17:22:37.564Z,11.27
2022-10-30T17:24:01.894Z,12.32
2022-10-30T17:25:40.217Z,11.82
2022-10-30T17:27:05.873Z,10.10
2022-10-30T17:28:30.936Z,12.40
2022-10-30T17:29:53.428Z,11.70
2022-10-30T17:31:29.968Z,12.35
2022-10-30T17:32:55.151Z,12.07
2022-10-30T17:34:19.840Z,12.93
2022-10-30T17:35:42.243Z,12.15
2022-10-30T17:37:05.656Z,12.35
2022-10-30T17:38:29.314Z,12.20
2022-10-30T17:39:52.698Z,13.77
2022-10-30T17:41:17.550Z,13.18
2022-10-30T17:42:41.024Z,12.88
2022-10-30T17:44:04.847Z,10.95
2022-10-30T17:45:28.187Z,12.13
2022-10-30T17:46:52.594Z,11.98
2022-10-30T17:48:17.658Z,12.50
2022-10-30T17:49:41.037Z,12.25
2022-10-30T17:51:04.537Z,12.75
2022-10-30T17:52:27.960Z,11.65
2022-10-30T17:53:51.603Z,11.85
2022-10-30T17:55:26.584Z,11.55
2022-10-30T17:56:51.566Z,12.48
2022-10-30T17:58:13.942Z,11.98
2022-10-30T17:59:37.390Z,11.40
2022-10-30T18:01:01.128Z,11.73
2022-10-30T18:02:25.107Z,11.88
2022-10-30T18:03:48.659Z,10.95
2022-10-30T18:05:17.391Z,11.35
2022-10-30T18:06:39.823Z,11.40
2022-10-30T18:08:03.289Z,13.18
2022-10-30T18:09:26.677Z,11.57
2022-10-30T18:10:50.057Z,11.38
2022-10-30T18:12:17.307Z,11.52
2022-10-30T18:13:41.073Z,11.68
2022-10-30T18:15:22.026Z,12.30
2022-10-30T18:16:45.396Z,10.52
2022-10-30T18:18:08.763Z,11.40
2022-10-30T18:19:32.107Z,12.18
2022-10-30T18:20:55.425Z,11.05
2022-10-30T18:22:18.738Z,11.77
2022-10-30T18:23:57.444Z,11.15
2022-10-30T18:25:24.236Z,12.95
2022-10-30T18:26:47.818Z,11.55
2022-10-30T18:28:12.522Z,10.95
2022-10-30T18:29:35.847Z,11.27
2022-10-30T18:31:01.143Z,9.98
2022-10-30T18:32:24.490Z,11.13
2022-10-30T18:33:47.881Z,11.95
2022-10-30T18:35:15.612Z,12.35
2022-10-30T18:36:38.966Z,11.43
2022-10-30T18:38:02.557Z,11.20
2022-10-30T18:39:25.968Z,11.38
2022-10-30T18:40:50.729Z,11.65
2022-10-30T18:42:14.165Z,12.90
2022-10-30T18:43:42.491Z,12.00
2022-10-30T18:45:19.582Z,11.15
2022-10-30T18:46:42.995Z,12.52
2022-10-30T18:48:05.938Z,12.52
2022-10-30T18:49:31.849Z,11.35
2022-10-30T18:50:55.202Z,11.75
2022-10-30T18:52:18.608Z,10.75
2022-10-30T18:53:41.946Z,11.02
2022-10-30T18:55:14.358Z,11.23
2022-10-30T18:56:37.759Z,11.00
2022-10-30T18:58:00.644Z,10.60
2022-10-30T18:59:25.588Z,11.30